USTRANSCOM 7517


EGUN
RAF Mildenhall
Mildenhall, GB
ETAR
Ramstein Air Force Base
Ramstein, DE

Activity Log

Date Flight Route Aircraft Duration
09/02/2020 CMB7517 EGUN/11 NUGTU1 NUGTU RATLO KOK UL607 PELIX NOSPA MAPIG ETAR/MAPIG.I08 B763 1h 07m

Route Details

Aircraft Information
Primary: Boeing 767-300BDSF
Backup: Boeing 757-200SF
Route Data
Distance: 322nm
Sched. Duration: 1h 00m
Avg. Duration: 1h 07m (+7m)
Times Flown: 1
Recm'd Route: Not Available
Planned Altitude: 33,000ft
Origin Wx: EGUN 312155Z 24007KT 9999 BKN150 10/06 A2982 RMK AO2A SLP098 WND DATA ESTMD RVRNO $
Dest. Wx: ETAR 312156Z AUTO 23004KT 9999 OVC040 14/11 A3007 RMK AO2 RAB37E45 SLP184 P0000 T01370107 FZRANO $
Notes: USTRANSCOM CONTRACT FLIGHT

Financial History
Total Freight: 125,636lbs
Average Load: 125,636lbs/flt
Fuel Used: 12,594lbs
Avg. Fuel Used: 12,594lbs/flt
Fuel Expense: $10,075
Avg. Fuel Expense: $10,075
Avg. Fuel Cost: $0.80/lbs
Total Gross Income: $332,935
Pilot Pay: $259
Total Expenses: $36,009
Total Revenue: $286,574
Average Revenue: $332,935.41